Time;durP1;ratioP1;P1;durP2;ratioP2;P2;SDS_P1;SDS_P2;PMS_P1;PMS_P2;Temp;Humidity;BMP_temperature;BMP_pressure;BME280_temperature;BME280_humidity;BME280_pressure;Samples;Min_cycle;Max_cycle;Signal;HPM_P1;HPM_P2
2022/10/27 00:01:36;;;;;;;13.90;6.97;;;18.00;99.90;;;;;;5075741;28;20111;-80
2022/10/27 00:04:02;;;;;;;15.80;7.18;;;17.70;99.90;;;;;;5075395;28;20085;-80
2022/10/27 00:06:28;;;;;;;15.63;6.97;;;17.40;99.90;;;;;;5075632;28;20036;-80
2022/10/27 00:08:53;;;;;;;18.27;6.65;;;17.30;99.90;;;;;;5075525;28;20032;-80
2022/10/27 00:11:19;;;;;;;19.52;7.63;;;17.30;99.90;;;;;;5075649;28;20439;-80
2022/10/27 00:13:44;;;;;;;19.90;7.57;;;17.60;99.90;;;;;;5075546;28;20024;-80
2022/10/27 00:16:15;;;;;;;15.98;7.10;;;17.70;99.90;;;;;;5075484;28;20098;-80
2022/10/27 00:18:43;;;;;;;17.17;7.47;;;17.80;99.90;;;;;;5075140;28;20024;-80
2022/10/27 00:21:11;;;;;;;17.65;7.63;;;18.00;99.90;;;;;;5075292;28;20570;-79
2022/10/27 00:23:37;;;;;;;17.80;7.63;;;18.10;99.90;;;;;;5075421;28;20090;-80
2022/10/27 00:26:03;;;;;;;19.92;8.20;;;18.10;99.90;;;;;;5075381;28;20051;-80
2022/10/27 00:28:30;;;;;;;17.20;7.93;;;18.10;99.90;;;;;;5075240;28;20021;-79
2022/10/27 00:31:09;;;;;;;14.00;7.57;;;18.20;99.90;;;;;;5075173;28;20060;-80
2022/10/27 00:33:35;;;;;;;12.77;6.93;;;17.80;99.90;;;;;;5074463;28;20083;-80
2022/10/27 00:36:21;;;;;;;15.38;7.50;;;17.70;99.90;;;;;;5075247;28;20068;-79
2022/10/27 00:38:47;;;;;;;15.50;7.97;;;17.50;99.90;;;;;;5075161;28;20024;-80
2022/10/27 00:41:34;;;;;;;15.38;7.45;;;17.40;99.90;;;;;;5074990;28;20024;-80
2022/10/27 00:44:21;;;;;;;15.90;7.88;;;17.20;99.90;;;;;;5074956;28;20035;-80
2022/10/27 00:46:47;;;;;;;16.88;7.95;;;17.40;99.90;;;;;;5074431;28;20036;-79
2022/10/27 00:49:18;;;;;;;15.73;7.60;;;17.30;99.90;;;;;;5074815;28;20036;-79
2022/10/27 00:51:56;;;;;;;16.15;7.82;;;17.40;99.90;;;;;;5074942;28;20025;-79
2022/10/27 00:54:24;;;;;;;16.98;7.82;;;17.50;99.90;;;;;;5074775;28;20021;-80
2022/10/27 00:56:51;;;;;;;16.20;8.13;;;17.40;99.90;;;;;;5074791;28;20033;-79
2022/10/27 00:59:18;;;;;;;17.98;7.68;;;17.30;99.90;;;;;;5074615;28;20044;-80
2022/10/27 01:01:45;;;;;;;18.30;7.90;;;17.30;99.90;;;;;;5074344;28;20029;-79
2022/10/27 01:04:11;;;;;;;15.63;8.27;;;17.40;99.90;;;;;;5074704;28;20020;-79
2022/10/27 01:06:37;;;;;;;16.83;7.57;;;17.30;99.90;;;;;;5074623;28;20728;-80
2022/10/27 01:09:04;;;;;;;19.83;8.38;;;17.10;99.90;;;;;;5074361;28;20025;-80
2022/10/27 01:11:30;;;;;;;17.02;7.90;;;17.20;99.90;;;;;;5074568;28;20025;-79
2022/10/27 01:13:56;;;;;;;15.00;7.70;;;17.20;99.90;;;;;;5074511;28;20036;-79
2022/10/27 01:17:00;;;;;;;14.48;8.48;;;17.10;99.90;;;;;;5073870;28;20515;-79
2022/10/27 01:20:06;;;;;;;12.57;7.97;;;17.20;99.90;;;;;;4973436;28;20089;-79
2022/10/27 01:22:50;;;;;;;15.98;8.73;;;16.90;99.90;;;;;;4934762;29;20646;-80
2022/10/27 01:25:56;;;;;;;12.90;8.40;;;16.90;99.90;;;;;;4934854;29;20043;-79
2022/10/27 01:28:56;;;;;;;16.02;8.50;;;17.00;99.90;;;;;;4934903;29;20496;-80
2022/10/27 01:31:33;;;;;;;18.60;8.60;;;17.10;99.90;;;;;;4934495;29;20094;-79
2022/10/27 01:34:05;;;;;;;13.38;8.63;;;17.10;99.90;;;;;;4934371;29;20493;-79
2022/10/27 01:36:36;;;;;;;12.25;7.78;;;17.00;99.90;;;;;;4934571;29;20067;-79
2022/10/27 01:39:20;;;;;;;14.55;8.32;;;17.00;99.90;;;;;;4934121;29;20592;-80
2022/10/27 01:41:57;;;;;;;15.68;8.30;;;17.10;99.90;;;;;;4918685;29;20028;-79
2022/10/27 01:44:30;;;;;;;22.75;9.43;;;17.00;99.90;;;;;;4934232;29;20032;-79
2022/10/27 01:46:56;;;;;;;22.17;9.27;;;17.10;99.90;;;;;;4934376;29;20374;-79
2022/10/27 01:49:22;;;;;;;17.38;9.40;;;17.10;99.90;;;;;;4934434;29;20032;-80
2022/10/27 01:51:51;;;;;;;17.45;9.10;;;17.20;99.90;;;;;;4934314;29;20036;-79
2022/10/27 01:54:18;;;;;;;18.10;9.38;;;17.30;99.90;;;;;;5019770;28;20060;-79
2022/10/27 01:56:44;;;;;;;15.40;9.40;;;17.20;99.90;;;;;;5057966;28;20135;-79
2022/10/27 01:59:34;;;;;;;15.45;9.05;;;17.30;99.90;;;;;;5073061;28;20096;-79
2022/10/27 02:02:24;;;;;;;17.67;9.63;;;17.20;99.90;;;;;;5073504;28;20389;-79
2022/10/27 02:05:03;;;;;;;17.75;8.75;;;17.20;99.90;;;;;;5058913;28;20040;-79
2022/10/27 02:07:42;;;;;;;19.45;8.77;;;17.10;99.90;;;;;;5073305;28;20031;-80
2022/10/27 02:10:28;;;;;;;18.42;9.85;;;17.00;99.90;;;;;;5073316;28;20111;-79
2022/10/27 02:12:55;;;;;;;18.88;8.50;;;17.10;99.90;;;;;;5073364;28;20031;-80
2022/10/27 02:15:36;;;;;;;17.90;8.77;;;17.00;99.90;;;;;;5072852;28;20016;-79
2022/10/27 02:18:10;;;;;;;20.45;9.85;;;17.00;99.90;;;;;;5073326;28;20071;-79
2022/10/27 02:20:42;;;;;;;19.42;9.75;;;16.90;99.90;;;;;;5073024;28;20063;-79
2022/10/27 02:23:13;;;;;;;18.17;9.82;;;16.80;99.90;;;;;;5073074;28;20028;-79
2022/10/27 02:25:47;;;;;;;17.80;10.00;;;16.80;99.90;;;;;;5073049;28;20028;-79
2022/10/27 02:28:17;;;;;;;19.15;9.48;;;16.80;99.90;;;;;;5072728;28;20020;-80
2022/10/27 02:30:43;;;;;;;22.80;9.68;;;16.80;99.90;;;;;;5073227;28;20024;-80
2022/10/27 02:33:09;;;;;;;18.20;9.05;;;16.80;99.90;;;;;;5072727;28;20505;-79
2022/10/27 02:35:35;;;;;;;20.35;9.52;;;16.80;99.90;;;;;;5072666;28;20401;-80
2022/10/27 02:38:02;;;;;;;16.98;9.60;;;16.90;99.90;;;;;;5072825;28;20112;-79
2022/10/27 02:40:28;;;;;;;19.52;9.90;;;16.90;99.90;;;;;;5072728;28;20029;-80
2022/10/27 02:42:54;;;;;;;18.50;9.93;;;16.90;99.90;;;;;;5072506;28;20024;-80
2022/10/27 02:45:20;;;;;;;21.40;9.80;;;16.80;99.90;;;;;;5072810;28;20455;-79
2022/10/27 02:47:46;;;;;;;15.57;10.20;;;16.70;99.90;;;;;;5072715;28;20028;-80
2022/10/27 02:50:12;;;;;;;20.83;10.13;;;16.80;99.90;;;;;;5071885;28;20492;-79
2022/10/27 02:52:37;;;;;;;18.70;9.18;;;16.70;99.90;;;;;;5072719;28;20054;-79
2022/10/27 02:55:03;;;;;;;22.05;9.80;;;16.70;99.90;;;;;;5072595;28;20103;-79
2022/10/27 02:57:29;;;;;;;23.88;9.18;;;16.80;99.90;;;;;;5072428;28;20060;-79
2022/10/27 02:59:54;;;;;;;15.85;9.20;;;16.70;99.90;;;;;;5072649;28;20047;-79
2022/10/27 03:02:21;;;;;;;20.50;9.05;;;16.70;99.90;;;;;;5072571;28;20063;-79
2022/10/27 03:04:47;;;;;;;19.52;9.15;;;16.70;99.90;;;;;;5071499;28;20412;-79
2022/10/27 03:07:13;;;;;;;19.63;9.05;;;16.80;99.90;;;;;;5072508;28;20035;-79
2022/10/27 03:09:38;;;;;;;20.33;9.95;;;16.70;99.90;;;;;;5072434;28;20370;-80
2022/10/27 03:12:04;;;;;;;16.92;9.40;;;16.60;99.90;;;;;;5070907;28;20426;-79
2022/10/27 03:14:30;;;;;;;16.67;8.85;;;16.70;99.90;;;;;;5072548;28;20028;-79
2022/10/27 03:16:55;;;;;;;15.35;8.15;;;16.60;99.90;;;;;;5072440;28;20067;-79
2022/10/27 03:19:21;;;;;;;16.52;8.18;;;16.70;99.90;;;;;;5072397;28;20489;-80
2022/10/27 03:21:46;;;;;;;16.73;8.93;;;16.60;99.90;;;;;;5072357;28;20101;-79
2022/10/27 03:24:12;;;;;;;18.63;8.65;;;16.50;99.90;;;;;;5072373;28;20021;-79
2022/10/27 03:26:39;;;;;;;17.17;8.65;;;16.40;99.90;;;;;;5072119;28;20562;-80
2022/10/27 03:29:04;;;;;;;17.02;8.85;;;16.50;99.90;;;;;;5072314;28;20381;-80
2022/10/27 03:31:30;;;;;;;19.65;8.43;;;16.50;99.90;;;;;;5072213;28;20035;-80
2022/10/27 03:33:56;;;;;;;20.60;8.20;;;16.60;99.90;;;;;;5071958;28;20048;-79
2022/10/27 03:36:21;;;;;;;20.42;8.50;;;16.70;99.90;;;;;;5072184;28;20523;-79
2022/10/27 03:38:47;;;;;;;17.27;8.82;;;16.60;99.90;;;;;;5072197;28;20021;-79
2022/10/27 03:41:13;;;;;;;15.85;8.50;;;16.80;99.90;;;;;;5071856;28;20093;-79
2022/10/27 03:43:39;;;;;;;15.93;9.07;;;16.60;99.90;;;;;;5072142;28;20028;-79
2022/10/27 03:46:04;;;;;;;15.23;8.73;;;16.60;99.90;;;;;;5072205;28;20028;-79
2022/10/27 03:48:30;;;;;;;17.20;9.23;;;16.60;99.90;;;;;;5072064;28;20493;-79
2022/10/27 03:50:55;;;;;;;19.80;8.88;;;16.60;99.90;;;;;;5072090;28;20102;-79
2022/10/27 03:53:21;;;;;;;15.55;8.70;;;16.60;99.90;;;;;;5072116;28;20029;-79
2022/10/27 03:55:47;;;;;;;17.38;8.50;;;16.70;99.90;;;;;;5071594;28;20032;-79
2022/10/27 03:58:15;;;;;;;15.27;9.00;;;16.60;99.90;;;;;;5071942;28;20020;-80
2022/10/27 04:00:40;;;;;;;19.70;9.35;;;16.60;99.90;;;;;;5073009;28;20040;-79
2022/10/27 04:03:07;;;;;;;16.65;8.65;;;16.60;99.90;;;;;;5075718;28;20031;-80
2022/10/27 04:05:32;;;;;;;16.38;9.10;;;16.60;99.90;;;;;;5075699;28;20146;-80
2022/10/27 04:07:58;;;;;;;14.10;8.75;;;16.60;99.90;;;;;;5075701;28;20103;-80
2022/10/27 04:10:24;;;;;;;16.80;9.38;;;16.50;99.90;;;;;;5075134;28;20037;-79
2022/10/27 04:12:52;;;;;;;19.48;9.57;;;16.50;99.90;;;;;;5075646;28;20021;-79
2022/10/27 04:15:19;;;;;;;16.83;9.15;;;16.50;99.90;;;;;;5075498;28;20455;-79
2022/10/27 04:17:45;;;;;;;16.50;9.63;;;16.50;99.90;;;;;;5074260;28;20031;-79
2022/10/27 04:20:11;;;;;;;18.17;9.82;;;16.30;99.90;;;;;;5075370;28;20064;-79
2022/10/27 04:22:37;;;;;;;22.60;9.50;;;16.30;99.90;;;;;;5075314;28;20025;-80
2022/10/27 04:25:03;;;;;;;17.52;8.80;;;16.20;99.90;;;;;;5075104;28;20028;-79
2022/10/27 04:27:29;;;;;;;16.20;8.98;;;16.20;99.90;;;;;;5075493;28;20103;-79
2022/10/27 04:29:54;;;;;;;17.52;8.77;;;16.10;99.90;;;;;;5075234;28;20067;-79
2022/10/27 04:32:20;;;;;;;16.48;9.02;;;16.10;99.90;;;;;;5074911;28;20037;-79
2022/10/27 04:34:46;;;;;;;18.23;8.70;;;16.20;99.90;;;;;;5075033;28;20033;-79
2022/10/27 04:37:12;;;;;;;20.95;9.30;;;16.20;99.90;;;;;;5075167;28;20025;-79
2022/10/27 04:39:37;;;;;;;15.45;9.05;;;16.30;99.90;;;;;;5074690;28;20484;-80
2022/10/27 04:42:03;;;;;;;14.73;8.52;;;16.30;99.90;;;;;;5073741;28;20052;-79
2022/10/27 04:44:28;;;;;;;17.20;8.73;;;16.20;99.90;;;;;;5074993;28;20024;-80
2022/10/27 04:46:54;;;;;;;16.15;8.85;;;16.30;99.90;;;;;;5074939;28;20111;-80
2022/10/27 04:49:20;;;;;;;15.32;8.65;;;16.50;99.90;;;;;;5074941;28;20031;-79
2022/10/27 04:51:45;;;;;;;17.00;9.10;;;16.20;99.90;;;;;;5074788;28;20020;-79
2022/10/27 04:54:11;;;;;;;17.08;8.55;;;16.20;99.90;;;;;;5074637;28;20469;-80
2022/10/27 04:56:36;;;;;;;16.77;8.50;;;16.20;99.90;;;;;;5074732;28;20049;-80
2022/10/27 04:59:02;;;;;;;19.50;8.73;;;16.30;99.90;;;;;;5074516;28;20048;-79
2022/10/27 05:01:28;;;;;;;18.92;9.18;;;16.20;99.90;;;;;;5074749;28;20397;-80
2022/10/27 05:03:53;;;;;;;17.45;8.90;;;16.20;99.90;;;;;;5074618;28;20099;-79
2022/10/27 05:06:19;;;;;;;18.33;8.90;;;16.30;99.90;;;;;;5074534;28;20503;-79
2022/10/27 05:08:44;;;;;;;23.15;8.75;;;16.30;99.90;;;;;;5074098;28;20099;-79
2022/10/27 05:11:10;;;;;;;21.60;9.00;;;16.30;99.90;;;;;;5073028;28;20035;-80
2022/10/27 05:13:36;;;;;;;19.42;9.43;;;16.30;99.90;;;;;;5073462;28;20194;-79
2022/10/27 05:16:03;;;;;;;21.35;10.00;;;16.00;99.90;;;;;;5074404;28;20094;-80
2022/10/27 05:18:29;;;;;;;16.63;9.23;;;16.10;99.90;;;;;;5074198;28;20025;-79
2022/10/27 05:20:54;;;;;;;19.13;10.13;;;16.10;99.90;;;;;;5074265;28;20039;-79
2022/10/27 05:23:20;;;;;;;16.63;10.15;;;16.10;99.90;;;;;;5073878;28;20016;-79
2022/10/27 05:25:53;;;;;;;16.08;10.07;;;16.20;99.90;;;;;;5074235;28;20032;-79
2022/10/27 05:28:19;;;;;;;20.02;9.88;;;16.20;99.90;;;;;;5074054;28;20111;-79
2022/10/27 05:30:45;;;;;;;17.25;9.77;;;16.10;99.90;;;;;;5074180;28;20449;-79
2022/10/27 05:33:10;;;;;;;14.35;10.00;;;16.10;99.90;;;;;;5073861;28;20098;-79
2022/10/27 05:35:36;;;;;;;19.13;9.55;;;16.10;99.90;;;;;;5073704;28;20036;-79
2022/10/27 05:38:01;;;;;;;19.48;10.05;;;16.00;99.90;;;;;;5073631;28;20028;-79
2022/10/27 05:40:33;;;;;;;21.63;10.52;;;16.00;99.90;;;;;;5073824;28;20477;-80
2022/10/27 05:42:59;;;;;;;20.60;9.57;;;16.10;99.90;;;;;;5073747;28;20020;-79
2022/10/27 05:45:25;;;;;;;15.68;9.25;;;16.30;99.90;;;;;;5073941;28;20035;-79
2022/10/27 05:48:05;;;;;;;18.27;10.00;;;16.10;99.90;;;;;;5073734;28;20501;-79
2022/10/27 05:50:32;;;;;;;20.42;9.07;;;16.10;99.90;;;;;;5073701;28;20036;-79
2022/10/27 05:52:58;;;;;;;21.52;9.95;;;16.00;99.90;;;;;;5073257;28;20031;-79
2022/10/27 05:55:24;;;;;;;21.80;9.80;;;16.30;99.90;;;;;;5073564;28;20040;-79
2022/10/27 05:57:55;;;;;;;19.15;9.27;;;16.00;99.90;;;;;;5073505;28;20099;-79
2022/10/27 06:00:22;;;;;;;19.08;9.57;;;16.10;99.90;;;;;;5073242;28;20501;-80
2022/10/27 06:02:48;;;;;;;14.48;9.27;;;16.10;99.90;;;;;;5073494;28;20024;-80
2022/10/27 06:05:13;;;;;;;22.48;9.68;;;16.10;99.90;;;;;;5072880;28;20024;-79
2022/10/27 06:07:39;;;;;;;16.77;9.80;;;16.00;99.90;;;;;;5073372;28;20048;-79
2022/10/27 06:10:05;;;;;;;22.52;10.00;;;16.20;99.90;;;;;;5072037;28;20028;-80
2022/10/27 06:12:30;;;;;;;15.77;8.95;;;15.90;99.90;;;;;;5073086;28;20028;-79
2022/10/27 06:14:56;;;;;;;19.67;9.10;;;15.90;99.90;;;;;;5073180;28;20365;-79
2022/10/27 06:17:21;;;;;;;17.23;8.57;;;15.90;99.90;;;;;;5073135;28;20029;-79
2022/10/27 06:19:47;;;;;;;19.58;8.63;;;16.00;99.90;;;;;;5072638;28;20404;-79
2022/10/27 06:22:12;;;;;;;18.05;9.13;;;16.00;99.90;;;;;;5073074;28;20385;-79
2022/10/27 06:24:38;;;;;;;22.10;8.82;;;16.00;99.90;;;;;;5072771;28;20115;-79
2022/10/27 06:27:04;;;;;;;15.25;8.40;;;16.00;99.90;;;;;;5073117;28;20031;-79
2022/10/27 06:29:29;;;;;;;18.35;9.27;;;15.90;99.90;;;;;;5072973;28;20036;-79
2022/10/27 06:31:55;;;;;;;21.20;9.25;;;16.00;99.90;;;;;;5072862;28;20020;-79
2022/10/27 06:34:21;;;;;;;17.45;9.23;;;16.10;99.90;;;;;;5072099;28;20056;-79
2022/10/27 06:36:47;;;;;;;16.95;8.90;;;16.10;99.90;;;;;;5072738;28;20035;-79
2022/10/27 06:39:12;;;;;;;27.45;9.10;;;16.30;99.90;;;;;;5072733;28;20036;-79
2022/10/27 06:41:38;;;;;;;16.08;8.27;;;16.40;99.90;;;;;;5072932;28;20024;-80
2022/10/27 06:44:03;;;;;;;18.67;8.32;;;16.10;99.90;;;;;;5072768;28;20021;-79
2022/10/27 06:46:29;;;;;;;16.30;8.30;;;16.20;99.90;;;;;;5072797;28;20016;-79
2022/10/27 06:48:54;;;;;;;17.98;8.55;;;16.40;99.90;;;;;;5072198;28;20032;-79
2022/10/27 06:51:20;;;;;;;17.55;9.00;;;16.40;99.90;;;;;;5072731;28;20027;-79
2022/10/27 06:53:46;;;;;;;21.67;9.02;;;16.50;99.90;;;;;;5072689;28;20036;-79
2022/10/27 06:56:11;;;;;;;17.88;8.88;;;16.50;99.90;;;;;;5072612;28;20071;-80
2022/10/27 06:58:38;;;;;;;19.85;9.32;;;16.60;99.90;;;;;;5072523;28;20043;-80
2022/10/27 07:01:05;;;;;;;21.10;10.05;;;16.80;99.90;;;;;;5072510;28;20035;-79
2022/10/27 07:03:33;;;;;;;26.55;8.77;;;16.30;99.90;;;;;;5072190;28;20327;-79
2022/10/27 07:05:59;;;;;;;23.60;9.23;;;16.80;99.90;;;;;;5072542;28;20100;-79
2022/10/27 07:08:24;;;;;;;21.75;9.20;;;17.00;99.90;;;;;;5072448;28;20020;-79
2022/10/27 07:10:51;;;;;;;24.42;9.88;;;17.00;99.90;;;;;;5072462;28;20158;-80
2022/10/27 07:13:16;;;;;;;14.27;8.65;;;17.10;99.90;;;;;;5072385;28;20028;-79
2022/10/27 07:15:42;;;;;;;19.42;8.30;;;17.20;99.90;;;;;;5072341;28;20043;-79
2022/10/27 07:18:10;;;;;;;16.50;8.40;;;17.30;99.90;;;;;;5070928;28;20117;-79
2022/10/27 07:20:38;;;;;;;13.57;7.88;;;17.30;99.90;;;;;;5072351;28;20020;-79
2022/10/27 07:23:05;;;;;;;18.38;8.40;;;17.50;99.90;;;;;;5072194;28;20087;-79
2022/10/27 07:25:32;;;;;;;19.00;8.30;;;17.60;99.90;;;;;;5072433;28;20437;-80
2022/10/27 07:27:58;;;;;;;18.42;8.43;;;17.80;99.90;;;;;;5072344;28;20127;-80
2022/10/27 07:30:28;;;;;;;15.40;8.07;;;18.10;99.90;;;;;;5072232;28;20032;-79
2022/10/27 07:32:55;;;;;;;15.68;7.65;;;18.20;99.90;;;;;;5071728;28;20044;-79
2022/10/27 07:35:21;;;;;;;20.55;7.75;;;18.70;99.90;;;;;;5072377;28;20091;-79
2022/10/27 07:37:47;;;;;;;14.48;7.35;;;18.60;99.90;;;;;;5075091;28;20028;-79
2022/10/27 07:40:15;;;;;;;14.85;8.38;;;18.60;99.90;;;;;;5076210;28;20024;-79
2022/10/27 07:42:46;;;;;;;15.50;7.22;;;18.70;99.90;;;;;;5076146;28;20074;-79
2022/10/27 07:45:13;;;;;;;16.70;7.20;;;19.20;99.90;;;;;;5076111;28;20048;-79
2022/10/27 07:47:46;;;;;;;14.23;6.90;;;20.70;99.90;;;;;;5075590;28;20030;-80
2022/10/27 07:50:12;;;;;;;15.43;6.55;;;22.20;99.90;;;;;;5076010;28;20020;-80
2022/10/27 07:52:46;;;;;;;15.77;6.00;;;24.10;99.90;;;;;;5075883;28;20029;-81
2022/10/27 07:55:14;;;;;;;14.05;6.63;;;26.60;99.90;;;;;;5075853;28;20052;-79
2022/10/27 07:57:40;;;;;;;20.77;6.63;;;26.30;99.90;;;;;;5075715;28;20544;-80
2022/10/27 08:00:09;;;;;;;15.40;6.10;;;27.30;99.90;;;;;;5075823;28;20082;-79
2022/10/27 08:02:34;;;;;;;13.98;6.35;;;28.70;99.90;;;;;;5074165;28;20389;-79
2022/10/27 08:05:00;;;;;;;16.52;6.45;;;29.70;99.90;;;;;;5075704;28;20023;-80
2022/10/27 08:07:26;;;;;;;16.90;6.72;;;30.10;99.90;;;;;;5075771;28;20443;-80
2022/10/27 08:09:51;;;;;;;11.52;6.18;;;30.80;99.90;;;;;;5075508;28;20031;-80
2022/10/27 08:12:18;;;;;;;13.20;5.88;;;31.40;99.90;;;;;;5075465;28;20297;-80
2022/10/27 08:14:44;;;;;;;12.52;6.50;;;32.00;99.90;;;;;;5075655;28;20033;-80
2022/10/27 08:17:09;;;;;;;16.15;6.47;;;32.10;99.90;;;;;;5075166;28;20036;-80
2022/10/27 08:19:35;;;;;;;12.60;6.88;;;33.00;99.90;;;;;;5075329;28;20477;-80
2022/10/27 08:22:01;;;;;;;13.10;6.43;;;33.10;99.90;;;;;;5075475;28;20031;-80
2022/10/27 08:24:26;;;;;;;19.42;7.18;;;33.80;99.90;;;;;;5075304;28;20035;-80
2022/10/27 08:26:52;;;;;;;16.23;6.53;;;34.50;99.90;;;;;;5075394;28;20107;-80
2022/10/27 08:29:17;;;;;;;15.73;6.60;;;34.70;99.90;;;;;;5075221;28;20082;-80
2022/10/27 08:31:43;;;;;;;14.90;6.57;;;35.10;99.90;;;;;;5073842;28;20473;-80
2022/10/27 08:34:09;;;;;;;17.98;6.70;;;35.50;99.90;;;;;;5074866;28;20048;-80
2022/10/27 08:36:38;;;;;;;14.57;6.75;;;36.10;99.90;;;;;;5074975;28;20079;-80
2022/10/27 08:39:11;;;;;;;16.45;6.88;;;36.50;99.90;;;;;;5075037;28;20074;-80
2022/10/27 08:41:50;;;;;;;17.77;6.80;;;37.00;99.90;;;;;;5075094;28;20029;-80
2022/10/27 08:44:35;;;;;;;12.02;6.43;;;37.30;99.90;;;;;;5075069;28;20081;-80
2022/10/27 08:47:04;;;;;;;17.65;6.65;;;38.10;99.90;;;;;;5073499;28;20028;-80
2022/10/27 08:49:50;;;;;;;13.68;6.80;;;38.10;99.90;;;;;;5074884;28;20021;-80
2022/10/27 08:52:24;;;;;;;11.40;6.63;;;36.70;99.90;;;;;;5074942;28;20085;-80
2022/10/27 08:54:59;;;;;;;16.15;7.32;;;35.60;99.90;;;;;;5074743;28;20028;-80
2022/10/27 08:57:32;;;;;;;15.32;6.63;;;36.70;99.90;;;;;;5074750;28;20025;-81
2022/10/27 08:59:58;;;;;;;17.13;7.15;;;38.20;99.90;;;;;;5074332;28;20059;-80
2022/10/27 09:02:48;;;;;;;13.98;6.85;;;36.90;99.90;;;;;;5074677;28;20051;-80
2022/10/27 09:05:33;;;;;;;12.55;7.00;;;37.60;99.90;;;;;;5074479;28;20028;-80
2022/10/27 09:08:07;;;;;;;17.02;6.78;;;38.20;99.90;;;;;;5074564;28;20021;-80
2022/10/27 09:10:46;;;;;;;13.95;6.97;;;39.00;99.90;;;;;;5074495;28;20529;-80
2022/10/27 09:13:23;;;;;;;16.00;6.97;;;39.90;99.90;;;;;;5074434;28;20031;-80
2022/10/27 09:15:51;;;;;;;14.90;6.78;;;39.20;99.90;;;;;;5074048;28;20036;-81
2022/10/27 09:18:29;;;;;;;13.80;6.70;;;38.80;99.90;;;;;;5074349;28;20025;-81
2022/10/27 09:21:01;;;;;;;15.30;6.10;;;38.60;99.90;;;;;;5074351;28;20078;-81
2022/10/27 09:23:34;;;;;;;11.50;7.10;;;39.20;99.90;;;;;;5074327;28;20016;-81
2022/10/27 09:26:00;;;;;;;13.32;6.55;;;39.20;99.90;;;;;;5074186;28;20039;-80
2022/10/27 09:28:34;;;;;;;11.95;7.38;;;39.80;99.90;;;;;;5073933;28;20025;-80
2022/10/27 09:31:02;;;;;;;11.27;6.97;;;38.60;99.90;;;;;;5074210;28;20492;-81
2022/10/27 09:33:48;;;;;;;11.05;6.65;;;38.80;99.90;;;;;;5073971;28;20568;-80
2022/10/27 09:36:14;;;;;;;14.55;6.68;;;38.70;99.90;;;;;;5073893;28;20044;-81
2022/10/27 09:38:40;;;;;;;14.52;6.90;;;37.90;99.90;;;;;;5073890;28;20378;-81
2022/10/27 09:41:06;;;;;;;12.00;6.47;;;36.70;99.90;;;;;;5073863;28;20036;-80
2022/10/27 09:43:33;;;;;;;14.18;6.47;;;38.00;99.90;;;;;;5073618;28;20485;-80
2022/10/27 09:46:20;;;;;;;13.13;6.10;;;38.90;99.90;;;;;;5073923;28;20052;-80
2022/10/27 09:48:46;;;;;;;13.82;6.05;;;37.60;99.90;;;;;;5073682;28;20162;-81
2022/10/27 09:51:19;;;;;;;12.90;6.30;;;37.60;99.90;;;;;;5073783;28;20032;-81
2022/10/27 09:53:51;;;;;;;14.52;6.20;;;40.30;99.90;;;;;;5073723;28;20024;-80
2022/10/27 09:56:32;;;;;;;14.40;6.22;;;38.70;99.90;;;;;;5073634;28;20060;-80
2022/10/27 09:59:01;;;;;;;13.38;6.47;;;38.50;99.90;;;;;;5073021;28;20021;-81
2022/10/27 10:01:42;;;;;;;12.60;6.28;;;38.00;99.90;;;;;;5073422;28;20084;-81
2022/10/27 10:04:27;;;;;;;16.27;6.15;;;39.10;99.90;;;;;;5073601;28;20055;-81
2022/10/27 10:06:56;;;;;;;17.60;6.38;;;38.30;99.90;;;;;;5073447;28;20306;-80
2022/10/27 10:09:26;;;;;;;13.77;6.20;;;38.00;99.90;;;;;;5073330;28;20048;-80
2022/10/27 10:12:17;;;;;;;12.55;6.35;;;39.20;99.90;;;;;;5072988;28;20103;-81
2022/10/27 10:14:43;;;;;;;11.52;6.03;;;38.40;99.90;;;;;;5073298;28;20370;-80
2022/10/27 10:17:20;;;;;;;13.43;6.57;;;39.30;99.90;;;;;;5073182;28;20099;-80
2022/10/27 10:19:46;;;;;;;14.82;6.47;;;40.60;99.90;;;;;;5072938;28;20032;-81
2022/10/27 10:22:36;;;;;;;11.85;6.38;;;40.90;99.90;;;;;;5073303;28;20025;-80
2022/10/27 10:25:15;;;;;;;14.48;6.30;;;39.80;99.90;;;;;;5073075;28;20028;-81
2022/10/27 10:27:46;;;;;;;16.67;5.75;;;39.80;99.90;;;;;;5072661;28;20037;-80
2022/10/27 10:30:18;;;;;;;14.98;6.38;;;40.40;99.90;;;;;;5073160;28;20075;-81
2022/10/27 10:32:49;;;;;;;14.45;6.32;;;40.90;99.90;;;;;;5072707;28;20045;-81
2022/10/27 10:35:44;;;;;;;12.13;5.60;;;39.80;99.90;;;;;;5072675;28;20040;-80
2022/10/27 10:38:23;;;;;;;12.48;5.82;;;39.00;99.90;;;;;;5072959;28;20076;-81
2022/10/27 10:41:09;;;;;;;14.85;6.38;;;38.10;99.90;;;;;;5072576;28;20389;-80
2022/10/27 10:43:34;;;;;;;14.15;5.88;;;39.20;99.90;;;;;;5072885;28;20027;-81
2022/10/27 10:46:01;;;;;;;15.15;5.88;;;39.60;99.90;;;;;;5072851;28;20037;-81
2022/10/27 10:48:35;;;;;;;13.30;5.70;;;39.50;99.90;;;;;;5072639;28;20540;-81
2022/10/27 10:51:00;;;;;;;16.67;6.35;;;38.40;99.90;;;;;;5072824;28;20024;-81
2022/10/27 10:53:39;;;;;;;17.08;6.20;;;38.30;99.90;;;;;;5072670;28;20359;-81
2022/10/27 10:56:36;;;;;;;13.60;5.43;;;38.10;99.90;;;;;;5072287;28;20370;-81
2022/10/27 10:59:14;;;;;;;20.75;5.93;;;39.00;99.90;;;;;;5071763;28;20098;-81
2022/10/27 11:01:42;;;;;;;14.23;6.07;;;40.50;99.90;;;;;;5072598;28;20025;-81
2022/10/27 11:04:19;;;;;;;13.82;5.78;;;38.40;99.90;;;;;;5072610;28;20033;-81
2022/10/27 11:07:02;;;;;;;11.43;5.65;;;39.10;99.90;;;;;;5072567;28;20043;-81
2022/10/27 11:09:34;;;;;;;12.93;5.72;;;39.20;99.90;;;;;;5072382;28;20035;-81
2022/10/27 11:12:02;;;;;;;13.63;5.88;;;40.10;99.90;;;;;;5071683;28;20082;-80
2022/10/27 11:14:28;;;;;;;12.52;5.32;;;41.90;99.90;;;;;;5072535;28;20025;-81
2022/10/27 11:16:58;;;;;;;15.88;5.45;;;40.70;99.90;;;;;;5070985;28;20036;-80
2022/10/27 11:19:27;;;;;;;12.20;5.72;;;39.40;99.90;;;;;;5072447;28;20077;-81
2022/10/27 11:22:00;;;;;;;14.02;5.78;;;38.80;99.90;;;;;;5072307;28;20043;-81
2022/10/27 11:25:02;;;;;;;13.13;6.22;;;37.20;99.90;;;;;;5071985;28;20052;-81
2022/10/27 11:27:48;;;;;;;10.90;5.82;;;36.70;99.90;;;;;;5072425;28;20381;-81
2022/10/27 11:30:26;;;;;;;13.02;6.13;;;35.60;99.90;;;;;;5072238;28;20486;-81
2022/10/27 11:33:24;;;;;;;14.43;5.97;;;35.90;99.90;;;;;;5072079;28;20126;-81
2022/10/27 11:36:06;;;;;;;16.55;6.53;;;34.60;99.90;;;;;;5072057;28;20040;-81
2022/10/27 11:39:00;;;;;;;18.50;6.30;;;36.10;99.90;;;;;;5072073;28;20020;-81
2022/10/27 11:41:59;;;;;;;9.93;5.63;;;36.60;99.90;;;;;;5058758;28;20040;-81
2022/10/27 11:44:38;;;;;;;14.68;6.22;;;36.60;99.90;;;;;;5072211;28;20031;-81
2022/10/27 11:47:21;;;;;;;12.98;5.93;;;34.30;99.90;;;;;;5072315;28;20504;-80
2022/10/27 11:50:05;;;;;;;12.60;5.88;;;33.20;99.90;;;;;;5072064;28;20489;-81
2022/10/27 11:52:56;;;;;;;13.75;6.05;;;31.70;99.90;;;;;;5072270;28;20020;-81
2022/10/27 11:55:27;;;;;;;13.75;5.90;;;30.60;99.90;;;;;;5066690;28;20078;-81
2022/10/27 11:58:23;;;;;;;12.43;6.47;;;29.70;99.90;;;;;;5072154;28;20039;-81
2022/10/27 12:01:17;;;;;;;12.20;5.60;;;28.80;99.90;;;;;;5071958;28;20374;-81
2022/10/27 12:03:58;;;;;;;17.38;6.65;;;27.90;99.90;;;;;;5058537;28;20044;-81
2022/10/27 12:06:54;;;;;;;15.05;6.60;;;27.40;99.90;;;;;;5071955;28;20401;-80
2022/10/27 12:09:26;;;;;;;16.50;6.65;;;27.70;99.90;;;;;;5066588;28;20052;-81
2022/10/27 12:12:13;;;;;;;15.85;6.47;;;27.70;99.90;;;;;;5071883;28;20103;-80
2022/10/27 12:15:07;;;;;;;14.88;6.70;;;27.50;99.90;;;;;;5071859;28;20029;-81
2022/10/27 12:17:50;;;;;;;14.20;6.70;;;27.40;99.90;;;;;;5071849;28;20086;-81
2022/10/27 12:20:39;;;;;;;17.40;7.10;;;27.30;99.90;;;;;;5071875;28;20028;-80
2022/10/27 12:23:10;;;;;;;14.48;6.18;;;27.20;99.90;;;;;;5073928;28;20116;-80
2022/10/27 12:25:59;;;;;;;14.15;6.95;;;27.20;99.90;;;;;;5075259;28;20025;-80
2022/10/27 12:28:27;;;;;;;13.93;6.50;;;27.30;99.90;;;;;;5075238;28;20016;-81
2022/10/27 12:30:56;;;;;;;16.42;6.50;;;27.10;99.90;;;;;;5075386;28;20021;-81
2022/10/27 12:33:30;;;;;;;13.25;6.22;;;27.70;99.90;;;;;;5055109;28;20048;-81
2022/10/27 12:36:18;;;;;;;14.80;6.57;;;29.50;99.90;;;;;;5074427;28;20036;-81
2022/10/27 12:39:25;;;;;;;15.77;6.47;;;31.70;99.90;;;;;;5074754;28;20370;-80
2022/10/27 12:41:56;;;;;;;14.60;5.93;;;33.50;99.90;;;;;;4974149;28;20102;-81
2022/10/27 12:44:40;;;;;;;19.77;6.95;;;33.70;99.90;;;;;;4974076;28;20041;-80
2022/10/27 12:47:17;;;;;;;13.15;6.13;;;34.20;99.90;;;;;;4974078;28;20106;-80
2022/10/27 12:49:58;;;;;;;17.60;6.47;;;32.80;99.90;;;;;;4973875;28;20143;-80
2022/10/27 12:52:28;;;;;;;16.40;6.35;;;30.50;99.90;;;;;;4973484;28;20042;-80
2022/10/27 12:55:06;;;;;;;17.77;6.93;;;29.80;99.90;;;;;;4973942;28;20035;-81
2022/10/27 12:57:52;;;;;;;10.40;5.78;;;29.90;99.90;;;;;;4973844;28;20054;-81